sensor_id;sensor_type;location;lat;lon;timestamp;temperature;humidity
35796;DHT22;21916;52.428;13.302;2022-09-12T00:00:32;14.00;99.90
35796;DHT22;21916;52.428;13.302;2022-09-12T00:02:58;14.00;99.90
35796;DHT22;21916;52.428;13.302;2022-09-12T00:05:25;13.90;99.90
35796;DHT22;21916;52.428;13.302;2022-09-12T00:07:52;13.90;99.90
35796;DHT22;21916;52.428;13.302;2022-09-12T00:10:18;13.90;99.90
35796;DHT22;21916;52.428;13.302;2022-09-12T00:12:44;13.80;99.90
35796;DHT22;21916;52.428;13.302;2022-09-12T00:15:10;13.90;99.90
35796;DHT22;21916;52.428;13.302;2022-09-12T00:17:37;13.80;99.90
35796;DHT22;21916;52.428;13.302;2022-09-12T00:20:05;13.70;99.90
35796;DHT22;21916;52.428;13.302;2022-09-12T00:22:32;13.80;99.90
35796;DHT22;21916;52.428;13.302;2022-09-12T00:24:59;13.60;99.90
35796;DHT22;21916;52.428;13.302;2022-09-12T00:27:26;13.60;99.90
35796;DHT22;21916;52.428;13.302;2022-09-12T00:29:52;13.60;99.90
35796;DHT22;21916;52.428;13.302;2022-09-12T00:32:21;13.50;99.90
35796;DHT22;21916;52.428;13.302;2022-09-12T00:34:47;13.40;99.90
35796;DHT22;21916;52.428;13.302;2022-09-12T00:37:13;13.30;99.90
35796;DHT22;21916;52.428;13.302;2022-09-12T00:39:39;13.30;99.90
35796;DHT22;21916;52.428;13.302;2022-09-12T00:42:05;13.30;99.90
35796;DHT22;21916;52.428;13.302;2022-09-12T00:50:02;13.10;99.90
35796;DHT22;21916;52.428;13.302;2022-09-12T00:55:21;13.00;99.90
35796;DHT22;21916;52.428;13.302;2022-09-12T01:00:24;12.90;99.90
35796;DHT22;21916;52.428;13.302;2022-09-12T01:02:57;12.90;99.90
35796;DHT22;21916;52.428;13.302;2022-09-12T01:05:26;12.90;99.90
35796;DHT22;21916;52.428;13.302;2022-09-12T01:07:53;12.80;99.90
35796;DHT22;21916;52.428;13.302;2022-09-12T01:10:21;12.90;99.90
35796;DHT22;21916;52.428;13.302;2022-09-12T01:12:49;12.80;99.90
35796;DHT22;21916;52.428;13.302;2022-09-12T01:15:15;12.70;99.90
35796;DHT22;21916;52.428;13.302;2022-09-12T01:31:39;12.50;99.90
35796;DHT22;21916;52.428;13.302;2022-09-12T01:39:27;12.30;99.90
35796;DHT22;21916;52.428;13.302;2022-09-12T01:42:19;12.40;99.90
35796;DHT22;21916;52.428;13.302;2022-09-12T01:44:49;12.40;99.90
35796;DHT22;21916;52.428;13.302;2022-09-12T01:47:30;12.30;99.90
35796;DHT22;21916;52.428;13.302;2022-09-12T01:50:05;12.40;99.90
35796;DHT22;21916;52.428;13.302;2022-09-12T01:55:14;12.40;99.90
35796;DHT22;21916;52.428;13.302;2022-09-12T02:00:32;12.30;99.90
35796;DHT22;21916;52.428;13.302;2022-09-12T02:03:10;12.20;99.90
35796;DHT22;21916;52.428;13.302;2022-09-12T02:05:44;12.20;99.90
35796;DHT22;21916;52.428;13.302;2022-09-12T02:08:32;12.10;99.90
35796;DHT22;21916;52.428;13.302;2022-09-12T02:11:06;12.00;99.90
35796;DHT22;21916;52.428;13.302;2022-09-12T02:19:07;11.90;99.90
35796;DHT22;21916;52.428;13.302;2022-09-12T02:21:35;11.90;99.90
35796;DHT22;21916;52.428;13.302;2022-09-12T02:24:04;12.00;99.90
35796;DHT22;21916;52.428;13.302;2022-09-12T02:26:35;12.00;99.90
35796;DHT22;21916;52.428;13.302;2022-09-12T02:29:05;12.00;99.90
35796;DHT22;21916;52.428;13.302;2022-09-12T02:31:39;12.00;99.90
35796;DHT22;21916;52.428;13.302;2022-09-12T02:37:23;12.00;99.90
35796;DHT22;21916;52.428;13.302;2022-09-12T02:39:52;11.90;99.90
35796;DHT22;21916;52.428;13.302;2022-09-12T02:42:20;11.90;99.90
35796;DHT22;21916;52.428;13.302;2022-09-12T02:44:46;11.90;99.90
35796;DHT22;21916;52.428;13.302;2022-09-12T02:47:22;11.90;99.90
35796;DHT22;21916;52.428;13.302;2022-09-12T02:49:50;11.80;99.90
35796;DHT22;21916;52.428;13.302;2022-09-12T02:52:17;11.80;99.90
35796;DHT22;21916;52.428;13.302;2022-09-12T02:54:44;11.80;99.90
35796;DHT22;21916;52.428;13.302;2022-09-12T02:57:20;11.80;99.90
35796;DHT22;21916;52.428;13.302;2022-09-12T02:59:47;11.80;99.90
35796;DHT22;21916;52.428;13.302;2022-09-12T03:05:18;11.70;99.90
35796;DHT22;21916;52.428;13.302;2022-09-12T03:08:12;11.70;99.90
35796;DHT22;21916;52.428;13.302;2022-09-12T03:10:47;11.70;99.90
35796;DHT22;21916;52.428;13.302;2022-09-12T03:22:20;11.70;99.90
35796;DHT22;21916;52.428;13.302;2022-09-12T03:25:13;11.60;99.90
35796;DHT22;21916;52.428;13.302;2022-09-12T03:28:00;11.70;99.90
35796;DHT22;21916;52.428;13.302;2022-09-12T03:30:31;11.70;99.90
35796;DHT22;21916;52.428;13.302;2022-09-12T03:33:01;11.70;99.90
35796;DHT22;21916;52.428;13.302;2022-09-12T03:35:27;11.60;99.90
35796;DHT22;21916;52.428;13.302;2022-09-12T03:37:54;11.60;99.90
35796;DHT22;21916;52.428;13.302;2022-09-12T03:40:20;11.60;99.90
35796;DHT22;21916;52.428;13.302;2022-09-12T03:42:46;11.60;99.90
35796;DHT22;21916;52.428;13.302;2022-09-12T03:45:13;11.60;99.90
35796;DHT22;21916;52.428;13.302;2022-09-12T03:47:41;11.70;99.90
35796;DHT22;21916;52.428;13.302;2022-09-12T03:50:07;11.60;99.90
35796;DHT22;21916;52.428;13.302;2022-09-12T03:52:33;11.60;99.90
35796;DHT22;21916;52.428;13.302;2022-09-12T03:54:59;11.60;99.90
35796;DHT22;21916;52.428;13.302;2022-09-12T03:57:25;11.60;99.90
35796;DHT22;21916;52.428;13.302;2022-09-12T03:59:51;11.60;99.90
35796;DHT22;21916;52.428;13.302;2022-09-12T04:02:17;11.50;99.90
35796;DHT22;21916;52.428;13.302;2022-09-12T04:04:43;11.60;99.90
35796;DHT22;21916;52.428;13.302;2022-09-12T04:07:10;11.60;99.90
35796;DHT22;21916;52.428;13.302;2022-09-12T04:09:37;11.50;99.90
35796;DHT22;21916;52.428;13.302;2022-09-12T04:12:03;11.50;99.90
35796;DHT22;21916;52.428;13.302;2022-09-12T04:14:29;11.40;99.90
35796;DHT22;21916;52.428;13.302;2022-09-12T04:16:55;11.40;99.90
35796;DHT22;21916;52.428;13.302;2022-09-12T04:19:21;11.40;99.90
35796;DHT22;21916;52.428;13.302;2022-09-12T04:21:48;11.40;99.90
35796;DHT22;21916;52.428;13.302;2022-09-12T04:24:14;11.40;99.90
35796;DHT22;21916;52.428;13.302;2022-09-12T04:26:40;11.50;99.90
35796;DHT22;21916;52.428;13.302;2022-09-12T04:29:06;11.40;99.90
35796;DHT22;21916;52.428;13.302;2022-09-12T04:31:34;11.30;99.90
35796;DHT22;21916;52.428;13.302;2022-09-12T04:34:00;11.40;99.90
35796;DHT22;21916;52.428;13.302;2022-09-12T04:36:27;11.30;99.90
35796;DHT22;21916;52.428;13.302;2022-09-12T04:38:54;11.40;99.90
35796;DHT22;21916;52.428;13.302;2022-09-12T04:41:25;11.40;99.90
35796;DHT22;21916;52.428;13.302;2022-09-12T04:43:54;11.40;99.90
35796;DHT22;21916;52.428;13.302;2022-09-12T04:46:24;11.40;99.90
35796;DHT22;21916;52.428;13.302;2022-09-12T04:48:51;11.30;99.90
35796;DHT22;21916;52.428;13.302;2022-09-12T04:51:25;11.30;99.90
35796;DHT22;21916;52.428;13.302;2022-09-12T04:53:54;11.30;99.90
35796;DHT22;21916;52.428;13.302;2022-09-12T04:56:21;11.30;99.90
35796;DHT22;21916;52.428;13.302;2022-09-12T04:58:47;11.30;99.90
35796;DHT22;21916;52.428;13.302;2022-09-12T05:01:15;11.30;99.90
35796;DHT22;21916;52.428;13.302;2022-09-12T05:03:42;11.40;99.90
35796;DHT22;21916;52.428;13.302;2022-09-12T05:06:17;11.40;99.90
35796;DHT22;21916;52.428;13.302;2022-09-12T05:08:44;11.40;99.90
35796;DHT22;21916;52.428;13.302;2022-09-12T05:11:14;11.50;99.90
35796;DHT22;21916;52.428;13.302;2022-09-12T05:13:40;11.60;99.90
35796;DHT22;21916;52.428;13.302;2022-09-12T05:16:08;11.50;99.90
35796;DHT22;21916;52.428;13.302;2022-09-12T05:18:35;11.60;99.90
35796;DHT22;21916;52.428;13.302;2022-09-12T05:21:04;11.60;99.90
35796;DHT22;21916;52.428;13.302;2022-09-12T05:23:30;11.70;99.90
35796;DHT22;21916;52.428;13.302;2022-09-12T05:25:58;11.70;99.90
35796;DHT22;21916;52.428;13.302;2022-09-12T05:28:28;11.70;99.90
35796;DHT22;21916;52.428;13.302;2022-09-12T05:31:08;11.80;99.90
35796;DHT22;21916;52.428;13.302;2022-09-12T05:33:37;11.90;99.90
35796;DHT22;21916;52.428;13.302;2022-09-12T05:36:05;11.90;99.90
35796;DHT22;21916;52.428;13.302;2022-09-12T05:38:35;12.00;99.90
35796;DHT22;21916;52.428;13.302;2022-09-12T05:41:14;12.10;99.90
35796;DHT22;21916;52.428;13.302;2022-09-12T05:43:41;12.20;99.90
35796;DHT22;21916;52.428;13.302;2022-09-12T05:46:17;12.20;99.90
35796;DHT22;21916;52.428;13.302;2022-09-12T05:48:46;12.30;99.90
35796;DHT22;21916;52.428;13.302;2022-09-12T05:51:19;12.40;99.90
35796;DHT22;21916;52.428;13.302;2022-09-12T05:53:48;12.50;99.90
35796;DHT22;21916;52.428;13.302;2022-09-12T05:56:19;12.60;99.90
35796;DHT22;21916;52.428;13.302;2022-09-12T05:58:52;12.60;99.90
35796;DHT22;21916;52.428;13.302;2022-09-12T06:01:19;12.70;99.90
35796;DHT22;21916;52.428;13.302;2022-09-12T06:03:48;12.70;99.90
35796;DHT22;21916;52.428;13.302;2022-09-12T06:06:16;12.80;99.90
35796;DHT22;21916;52.428;13.302;2022-09-12T06:08:45;12.90;99.90
35796;DHT22;21916;52.428;13.302;2022-09-12T06:11:14;12.90;99.90
35796;DHT22;21916;52.428;13.302;2022-09-12T06:13:40;13.00;99.90
35796;DHT22;21916;52.428;13.302;2022-09-12T06:16:09;13.10;99.90
35796;DHT22;21916;52.428;13.302;2022-09-12T06:18:36;13.20;99.90
35796;DHT22;21916;52.428;13.302;2022-09-12T06:21:10;13.30;99.90
35796;DHT22;21916;52.428;13.302;2022-09-12T06:23:37;13.40;99.90
35796;DHT22;21916;52.428;13.302;2022-09-12T06:26:04;13.50;99.90
35796;DHT22;21916;52.428;13.302;2022-09-12T06:28:33;13.50;99.90
35796;DHT22;21916;52.428;13.302;2022-09-12T06:31:06;13.60;99.90
35796;DHT22;21916;52.428;13.302;2022-09-12T06:33:34;13.80;99.90
35796;DHT22;21916;52.428;13.302;2022-09-12T06:36:07;13.80;99.90
35796;DHT22;21916;52.428;13.302;2022-09-12T06:38:34;13.90;99.90
35796;DHT22;21916;52.428;13.302;2022-09-12T06:41:05;14.00;99.90
35796;DHT22;21916;52.428;13.302;2022-09-12T06:43:34;14.00;99.90
35796;DHT22;21916;52.428;13.302;2022-09-12T06:46:01;14.20;99.90
35796;DHT22;21916;52.428;13.302;2022-09-12T06:48:27;14.40;99.90
35796;DHT22;21916;52.428;13.302;2022-09-12T06:53:26;14.50;99.90
35796;DHT22;21916;52.428;13.302;2022-09-12T06:55:56;14.50;99.90
35796;DHT22;21916;52.428;13.302;2022-09-12T06:58:24;14.70;99.90
35796;DHT22;21916;52.428;13.302;2022-09-12T07:00:50;14.80;99.90
35796;DHT22;21916;52.428;13.302;2022-09-12T07:03:17;14.90;99.90
35796;DHT22;21916;52.428;13.302;2022-09-12T07:05:45;15.00;99.90
35796;DHT22;21916;52.428;13.302;2022-09-12T07:08:11;15.10;99.90
35796;DHT22;21916;52.428;13.302;2022-09-12T07:10:36;15.20;99.90
35796;DHT22;21916;52.428;13.302;2022-09-12T07:13:02;15.30;99.90
35796;DHT22;21916;52.428;13.302;2022-09-12T07:15:29;15.30;99.90
35796;DHT22;21916;52.428;13.302;2022-09-12T07:17:55;15.40;99.90
35796;DHT22;21916;52.428;13.302;2022-09-12T07:20:21;15.50;99.90
35796;DHT22;21916;52.428;13.302;2022-09-12T07:22:47;15.70;99.90
35796;DHT22;21916;52.428;13.302;2022-09-12T07:25:15;15.80;99.90
35796;DHT22;21916;52.428;13.302;2022-09-12T07:27:41;15.80;99.90
35796;DHT22;21916;52.428;13.302;2022-09-12T07:30:08;15.90;99.90
35796;DHT22;21916;52.428;13.302;2022-09-12T07:32:34;16.10;99.90
35796;DHT22;21916;52.428;13.302;2022-09-12T07:35:00;16.10;99.90
35796;DHT22;21916;52.428;13.302;2022-09-12T07:37:29;16.20;99.90
35796;DHT22;21916;52.428;13.302;2022-09-12T07:39:55;16.30;99.90
35796;DHT22;21916;52.428;13.302;2022-09-12T07:42:22;16.40;99.90
35796;DHT22;21916;52.428;13.302;2022-09-12T07:44:48;16.50;99.90
35796;DHT22;21916;52.428;13.302;2022-09-12T07:47:15;16.70;99.90
35796;DHT22;21916;52.428;13.302;2022-09-12T07:49:41;16.80;99.90
35796;DHT22;21916;52.428;13.302;2022-09-12T07:52:07;16.70;99.90
35796;DHT22;21916;52.428;13.302;2022-09-12T07:54:35;16.70;99.90
35796;DHT22;21916;52.428;13.302;2022-09-12T07:57:01;16.80;99.90
35796;DHT22;21916;52.428;13.302;2022-09-12T07:59:27;16.70;99.90
35796;DHT22;21916;52.428;13.302;2022-09-12T08:01:53;16.60;99.90
35796;DHT22;21916;52.428;13.302;2022-09-12T08:04:19;16.60;99.90
35796;DHT22;21916;52.428;13.302;2022-09-12T08:06:45;16.70;99.90
35796;DHT22;21916;52.428;13.302;2022-09-12T08:09:11;16.80;99.90
35796;DHT22;21916;52.428;13.302;2022-09-12T08:11:41;16.80;99.90
35796;DHT22;21916;52.428;13.302;2022-09-12T08:14:07;16.90;99.90
35796;DHT22;21916;52.428;13.302;2022-09-12T08:16:33;16.90;99.90
35796;DHT22;21916;52.428;13.302;2022-09-12T08:19:01;17.00;99.90
35796;DHT22;21916;52.428;13.302;2022-09-12T08:21:30;17.00;99.90
35796;DHT22;21916;52.428;13.302;2022-09-12T08:23:59;17.10;99.90
35796;DHT22;21916;52.428;13.302;2022-09-12T08:26:26;17.20;99.90
35796;DHT22;21916;52.428;13.302;2022-09-12T08:28:53;17.30;99.90
35796;DHT22;21916;52.428;13.302;2022-09-12T08:31:21;17.30;99.90
35796;DHT22;21916;52.428;13.302;2022-09-12T08:33:48;17.30;99.90
35796;DHT22;21916;52.428;13.302;2022-09-12T08:38:42;17.60;99.90
35796;DHT22;21916;52.428;13.302;2022-09-12T08:41:24;17.80;99.90
35796;DHT22;21916;52.428;13.302;2022-09-12T08:49:40;18.00;99.90
35796;DHT22;21916;52.428;13.302;2022-09-12T08:52:16;18.20;99.90
35796;DHT22;21916;52.428;13.302;2022-09-12T08:54:43;18.50;99.90
35796;DHT22;21916;52.428;13.302;2022-09-12T08:57:13;18.70;99.90
35796;DHT22;21916;52.428;13.302;2022-09-12T08:59:44;18.80;99.90
35796;DHT22;21916;52.428;13.302;2022-09-12T09:05:15;19.00;99.90
35796;DHT22;21916;52.428;13.302;2022-09-12T09:13:36;19.10;99.90
35796;DHT22;21916;52.428;13.302;2022-09-12T09:16:35;19.50;99.90
35796;DHT22;21916;52.428;13.302;2022-09-12T09:19:33;19.70;99.90
35796;DHT22;21916;52.428;13.302;2022-09-12T09:22:07;19.40;99.90
35796;DHT22;21916;52.428;13.302;2022-09-12T09:24:42;19.10;99.90
35796;DHT22;21916;52.428;13.302;2022-09-12T09:27:40;19.00;99.90
35796;DHT22;21916;52.428;13.302;2022-09-12T09:30:14;19.40;99.90
35796;DHT22;21916;52.428;13.302;2022-09-12T09:32:41;19.40;99.90
35796;DHT22;21916;52.428;13.302;2022-09-12T09:35:15;19.40;99.90
35796;DHT22;21916;52.428;13.302;2022-09-12T09:37:50;19.60;99.90
35796;DHT22;21916;52.428;13.302;2022-09-12T09:40:26;19.80;99.90
35796;DHT22;21916;52.428;13.302;2022-09-12T09:43:04;20.10;99.90
35796;DHT22;21916;52.428;13.302;2022-09-12T09:45:31;20.10;99.90
35796;DHT22;21916;52.428;13.302;2022-09-12T09:48:33;20.10;99.90
35796;DHT22;21916;52.428;13.302;2022-09-12T09:51:02;20.20;99.90
35796;DHT22;21916;52.428;13.302;2022-09-12T09:53:39;20.40;99.90
35796;DHT22;21916;52.428;13.302;2022-09-12T09:56:28;20.50;99.90
35796;DHT22;21916;52.428;13.302;2022-09-12T09:58:55;20.80;99.90
35796;DHT22;21916;52.428;13.302;2022-09-12T10:01:21;21.20;99.90
35796;DHT22;21916;52.428;13.302;2022-09-12T10:03:54;21.40;99.90
35796;DHT22;21916;52.428;13.302;2022-09-12T10:06:36;21.60;99.90
35796;DHT22;21916;52.428;13.302;2022-09-12T10:09:05;22.10;99.90
35796;DHT22;21916;52.428;13.302;2022-09-12T10:11:32;22.50;99.90
35796;DHT22;21916;52.428;13.302;2022-09-12T10:13:58;22.90;99.90
35796;DHT22;21916;52.428;13.302;2022-09-12T10:16:32;23.40;99.90
35796;DHT22;21916;52.428;13.302;2022-09-12T10:19:01;23.60;99.90
35796;DHT22;21916;52.428;13.302;2022-09-12T10:22:06;23.40;98.70
35796;DHT22;21916;52.428;13.302;2022-09-12T10:24:40;23.20;99.40
35796;DHT22;21916;52.428;13.302;2022-09-12T10:32:40;22.00;97.90
35796;DHT22;21916;52.428;13.302;2022-09-12T10:35:22;21.40;99.10
35796;DHT22;21916;52.428;13.302;2022-09-12T10:38:00;21.50;99.10
35796;DHT22;21916;52.428;13.302;2022-09-12T10:40:38;21.90;99.00
35796;DHT22;21916;52.428;13.302;2022-09-12T10:43:23;21.90;99.00
35796;DHT22;21916;52.428;13.302;2022-09-12T10:45:51;22.30;99.50
35796;DHT22;21916;52.428;13.302;2022-09-12T10:48:30;23.20;99.20
35796;DHT22;21916;52.428;13.302;2022-09-12T10:50:57;23.20;98.40
35796;DHT22;21916;52.428;13.302;2022-09-12T10:53:31;23.40;97.90
35796;DHT22;21916;52.428;13.302;2022-09-12T10:56:09;23.40;96.90
35796;DHT22;21916;52.428;13.302;2022-09-12T11:07:06;26.50;92.60
35796;DHT22;21916;52.428;13.302;2022-09-12T11:15:29;23.20;95.10
35796;DHT22;21916;52.428;13.302;2022-09-12T11:26:21;22.40;96.50
35796;DHT22;21916;52.428;13.302;2022-09-12T11:34:10;24.80;94.40
35796;DHT22;21916;52.428;13.302;2022-09-12T11:39:35;29.20;88.10
35796;DHT22;21916;52.428;13.302;2022-09-12T11:42:04;31.30;82.40
35796;DHT22;21916;52.428;13.302;2022-09-12T11:44:41;32.80;77.60
35796;DHT22;21916;52.428;13.302;2022-09-12T11:47:11;33.60;73.50
35796;DHT22;21916;52.428;13.302;2022-09-12T11:49:49;34.20;72.60
35796;DHT22;21916;52.428;13.302;2022-09-12T11:52:19;34.80;68.80
35796;DHT22;21916;52.428;13.302;2022-09-12T11:57:55;33.40;66.50
35796;DHT22;21916;52.428;13.302;2022-09-12T12:00:46;32.70;66.90
35796;DHT22;21916;52.428;13.302;2022-09-12T12:06:03;33.30;64.90
35796;DHT22;21916;52.428;13.302;2022-09-12T12:08:36;33.60;64.50
35796;DHT22;21916;52.428;13.302;2022-09-12T12:11:04;33.50;64.70
35796;DHT22;21916;52.428;13.302;2022-09-12T12:16:19;31.70;65.80
35796;DHT22;21916;52.428;13.302;2022-09-12T12:18:54;30.70;67.40
35796;DHT22;21916;52.428;13.302;2022-09-12T12:34:40;29.60;70.70
35796;DHT22;21916;52.428;13.302;2022-09-12T12:50:27;28.70;71.40
35796;DHT22;21916;52.428;13.302;2022-09-12T12:58:01;26.30;74.40
35796;DHT22;21916;52.428;13.302;2022-09-12T13:00:35;25.20;77.30
35796;DHT22;21916;52.428;13.302;2022-09-12T13:03:09;24.60;78.40
35796;DHT22;21916;52.428;13.302;2022-09-12T13:05:47;24.90;78.40
35796;DHT22;21916;52.428;13.302;2022-09-12T13:11:14;26.00;76.60
35796;DHT22;21916;52.428;13.302;2022-09-12T13:16:10;25.40;77.60
35796;DHT22;21916;52.428;13.302;2022-09-12T13:18:45;25.40;77.90
35796;DHT22;21916;52.428;13.302;2022-09-12T13:21:14;25.50;77.30
35796;DHT22;21916;52.428;13.302;2022-09-12T13:23:41;24.90;77.80
35796;DHT22;21916;52.428;13.302;2022-09-12T13:26:21;24.70;79.20
35796;DHT22;21916;52.428;13.302;2022-09-12T13:28:47;25.70;77.40
35796;DHT22;21916;52.428;13.302;2022-09-12T13:31:25;25.80;77.60
35796;DHT22;21916;52.428;13.302;2022-09-12T13:33:57;26.00;76.70
35796;DHT22;21916;52.428;13.302;2022-09-12T13:39:28;26.90;75.20
35796;DHT22;21916;52.428;13.302;2022-09-12T13:44:56;25.30;77.70
35796;DHT22;21916;52.428;13.302;2022-09-12T13:47:34;25.40;77.90
35796;DHT22;21916;52.428;13.302;2022-09-12T13:50:03;25.70;76.90
35796;DHT22;21916;52.428;13.302;2022-09-12T13:52:33;26.50;76.70
35796;DHT22;21916;52.428;13.302;2022-09-12T13:55:01;26.20;77.00
35796;DHT22;21916;52.428;13.302;2022-09-12T13:57:37;25.40;78.40
35796;DHT22;21916;52.428;13.302;2022-09-12T14:02:34;25.30;79.30
35796;DHT22;21916;52.428;13.302;2022-09-12T14:05:10;24.80;79.00
35796;DHT22;21916;52.428;13.302;2022-09-12T14:10:30;25.00;79.30
35796;DHT22;21916;52.428;13.302;2022-09-12T14:13:03;24.50;79.80
35796;DHT22;21916;52.428;13.302;2022-09-12T14:15:35;24.40;80.30
35796;DHT22;21916;52.428;13.302;2022-09-12T14:18:03;24.70;81.00
35796;DHT22;21916;52.428;13.302;2022-09-12T14:20:34;24.80;79.40
35796;DHT22;21916;52.428;13.302;2022-09-12T14:23:02;24.50;81.60
35796;DHT22;21916;52.428;13.302;2022-09-12T14:25:37;24.10;82.50
35796;DHT22;21916;52.428;13.302;2022-09-12T14:28:09;23.90;82.40
35796;DHT22;21916;52.428;13.302;2022-09-12T14:30:37;24.00;82.70
35796;DHT22;21916;52.428;13.302;2022-09-12T14:33:04;24.00;82.50
35796;DHT22;21916;52.428;13.302;2022-09-12T14:35:30;23.90;81.70
35796;DHT22;21916;52.428;13.302;2022-09-12T14:40:48;24.00;82.70
35796;DHT22;21916;52.428;13.302;2022-09-12T14:43:23;23.60;83.70
35796;DHT22;21916;52.428;13.302;2022-09-12T14:48:53;23.30;85.70
35796;DHT22;21916;52.428;13.302;2022-09-12T14:51:39;23.20;85.20
35796;DHT22;21916;52.428;13.302;2022-09-12T15:02:39;23.50;85.20
35796;DHT22;21916;52.428;13.302;2022-09-12T15:07:43;22.80;87.00
35796;DHT22;21916;52.428;13.302;2022-09-12T15:10:36;22.50;88.60
35796;DHT22;21916;52.428;13.302;2022-09-12T15:15:38;22.10;89.50
35796;DHT22;21916;52.428;13.302;2022-09-12T15:18:05;22.00;90.00
35796;DHT22;21916;52.428;13.302;2022-09-12T15:20:32;21.80;90.40
35796;DHT22;21916;52.428;13.302;2022-09-12T15:22:58;21.80;90.70
35796;DHT22;21916;52.428;13.302;2022-09-12T15:25:25;21.70;90.60
35796;DHT22;21916;52.428;13.302;2022-09-12T15:27:52;21.70;91.00
35796;DHT22;21916;52.428;13.302;2022-09-12T15:30:18;21.90;91.00
35796;DHT22;21916;52.428;13.302;2022-09-12T15:32:44;21.90;90.70
35796;DHT22;21916;52.428;13.302;2022-09-12T15:35:23;22.10;91.10
35796;DHT22;21916;52.428;13.302;2022-09-12T15:37:52;21.90;90.80
35796;DHT22;21916;52.428;13.302;2022-09-12T15:40:18;21.90;90.90
35796;DHT22;21916;52.428;13.302;2022-09-12T15:42:44;22.00;91.00
35796;DHT22;21916;52.428;13.302;2022-09-12T15:45:25;21.80;91.20
35796;DHT22;21916;52.428;13.302;2022-09-12T15:47:53;21.90;91.10
35796;DHT22;21916;52.428;13.302;2022-09-12T15:50:19;21.80;91.50
35796;DHT22;21916;52.428;13.302;2022-09-12T15:52:45;21.80;91.00
35796;DHT22;21916;52.428;13.302;2022-09-12T15:55:20;21.60;90.80
35796;DHT22;21916;52.428;13.302;2022-09-12T15:57:48;21.60;91.40
35796;DHT22;21916;52.428;13.302;2022-09-12T16:00:16;21.50;91.30
35796;DHT22;21916;52.428;13.302;2022-09-12T16:02:43;21.50;91.40
35796;DHT22;21916;52.428;13.302;2022-09-12T16:05:14;21.50;91.70
35796;DHT22;21916;52.428;13.302;2022-09-12T16:07:43;21.50;91.80
35796;DHT22;21916;52.428;13.302;2022-09-12T16:10:17;21.40;92.00
35796;DHT22;21916;52.428;13.302;2022-09-12T16:12:43;21.50;92.30
35796;DHT22;21916;52.428;13.302;2022-09-12T16:15:12;21.30;91.90
35796;DHT22;21916;52.428;13.302;2022-09-12T16:17:39;21.30;92.00
35796;DHT22;21916;52.428;13.302;2022-09-12T16:20:05;21.40;92.30
35796;DHT22;21916;52.428;13.302;2022-09-12T16:22:31;21.30;92.20
35796;DHT22;21916;52.428;13.302;2022-09-12T16:24:57;21.20;92.20
35796;DHT22;21916;52.428;13.302;2022-09-12T16:27:24;21.10;92.40
35796;DHT22;21916;52.428;13.302;2022-09-12T16:29:50;21.10;92.70
35796;DHT22;21916;52.428;13.302;2022-09-12T16:32:17;21.10;93.10
35796;DHT22;21916;52.428;13.302;2022-09-12T16:34:43;21.00;93.00
35796;DHT22;21916;52.428;13.302;2022-09-12T16:37:08;21.00;93.60
35796;DHT22;21916;52.428;13.302;2022-09-12T16:39:35;21.00;93.70
35796;DHT22;21916;52.428;13.302;2022-09-12T16:42:01;21.00;93.90
35796;DHT22;21916;52.428;13.302;2022-09-12T16:44:26;20.90;94.00
35796;DHT22;21916;52.428;13.302;2022-09-12T16:46:52;20.80;94.40
35796;DHT22;21916;52.428;13.302;2022-09-12T16:49:21;20.80;94.80
35796;DHT22;21916;52.428;13.302;2022-09-12T16:51:49;20.80;94.80
35796;DHT22;21916;52.428;13.302;2022-09-12T16:54:15;20.70;94.90
35796;DHT22;21916;52.428;13.302;2022-09-12T16:56:42;20.60;95.30
35796;DHT22;21916;52.428;13.302;2022-09-12T16:59:08;20.50;95.60
35796;DHT22;21916;52.428;13.302;2022-09-12T17:01:37;20.50;95.50
35796;DHT22;21916;52.428;13.302;2022-09-12T17:04:03;20.50;95.80
35796;DHT22;21916;52.428;13.302;2022-09-12T17:06:31;20.50;96.00
35796;DHT22;21916;52.428;13.302;2022-09-12T17:09:00;20.40;96.10
35796;DHT22;21916;52.428;13.302;2022-09-12T17:11:37;20.40;96.30
35796;DHT22;21916;52.428;13.302;2022-09-12T17:14:06;20.40;96.40
35796;DHT22;21916;52.428;13.302;2022-09-12T17:16:35;20.40;96.80
35796;DHT22;21916;52.428;13.302;2022-09-12T17:19:02;20.30;97.00
35796;DHT22;21916;52.428;13.302;2022-09-12T17:21:28;20.20;97.40
35796;DHT22;21916;52.428;13.302;2022-09-12T17:23:54;20.10;97.80
35796;DHT22;21916;52.428;13.302;2022-09-12T17:26:20;20.00;98.20
35796;DHT22;21916;52.428;13.302;2022-09-12T17:28:46;19.90;98.50
35796;DHT22;21916;52.428;13.302;2022-09-12T17:31:13;19.70;99.00
35796;DHT22;21916;52.428;13.302;2022-09-12T17:33:41;19.70;99.40
35796;DHT22;21916;52.428;13.302;2022-09-12T17:36:10;19.60;99.90
35796;DHT22;21916;52.428;13.302;2022-09-12T17:38:38;19.40;99.90
35796;DHT22;21916;52.428;13.302;2022-09-12T17:41:21;19.30;99.90
35796;DHT22;21916;52.428;13.302;2022-09-12T17:43:53;19.10;99.90
35796;DHT22;21916;52.428;13.302;2022-09-12T17:46:25;19.00;99.90
35796;DHT22;21916;52.428;13.302;2022-09-12T17:48:52;19.00;99.90
35796;DHT22;21916;52.428;13.302;2022-09-12T17:51:19;18.90;99.90
35796;DHT22;21916;52.428;13.302;2022-09-12T17:53:46;18.80;99.90
35796;DHT22;21916;52.428;13.302;2022-09-12T17:56:12;18.70;99.90
35796;DHT22;21916;52.428;13.302;2022-09-12T17:58:38;18.70;99.90
35796;DHT22;21916;52.428;13.302;2022-09-12T18:01:10;18.70;99.90
35796;DHT22;21916;52.428;13.302;2022-09-12T18:03:57;18.70;99.90
35796;DHT22;21916;52.428;13.302;2022-09-12T18:06:26;18.60;99.90
35796;DHT22;21916;52.428;13.302;2022-09-12T18:08:52;18.50;99.90
35796;DHT22;21916;52.428;13.302;2022-09-12T18:11:18;18.40;99.90
35796;DHT22;21916;52.428;13.302;2022-09-12T18:13:44;18.40;99.90
35796;DHT22;21916;52.428;13.302;2022-09-12T18:16:11;18.40;99.90
35796;DHT22;21916;52.428;13.302;2022-09-12T18:18:38;18.40;99.90
35796;DHT22;21916;52.428;13.302;2022-09-12T18:21:07;18.30;99.90
35796;DHT22;21916;52.428;13.302;2022-09-12T18:23:33;18.20;99.90
35796;DHT22;21916;52.428;13.302;2022-09-12T18:26:09;18.20;99.90
35796;DHT22;21916;52.428;13.302;2022-09-12T18:28:41;18.10;99.90
35796;DHT22;21916;52.428;13.302;2022-09-12T18:31:16;17.90;99.90
35796;DHT22;21916;52.428;13.302;2022-09-12T18:33:43;17.90;99.90
35796;DHT22;21916;52.428;13.302;2022-09-12T18:36:11;17.80;99.90
35796;DHT22;21916;52.428;13.302;2022-09-12T18:38:38;17.80;99.90
35796;DHT22;21916;52.428;13.302;2022-09-12T18:41:09;17.90;99.90